createdAt,value
2023-02-02T00:03:35.761Z,98797.06
2023-02-02T00:08:39.916Z,98814.53
2023-02-02T00:13:42.912Z,98792.78
2023-02-02T00:18:45.706Z,98798.09
2023-02-02T00:23:49.874Z,98797.97
2023-02-02T00:28:52.866Z,98811.22
2023-02-02T00:33:55.657Z,98802.25
2023-02-02T00:38:59.849Z,98804.03
2023-02-02T00:44:20.089Z,98811.34
2023-02-02T00:49:23.211Z,98802.91
2023-02-02T00:54:28.043Z,98817.75
2023-02-02T00:59:30.850Z,98818.59
2023-02-02T01:04:33.647Z,98820.97
2023-02-02T01:09:37.800Z,98810.59
2023-02-02T01:14:40.713Z,98797.63
2023-02-02T01:19:43.486Z,98810.94
2023-02-02T01:24:49.371Z,98811.69
2023-02-02T01:29:52.280Z,98810.09
2023-02-02T01:34:55.027Z,98812.63
2023-02-02T01:39:59.148Z,98804.91
2023-02-02T01:45:27.158Z,98798.66
2023-02-02T01:50:35.780Z,98808.41
2023-02-02T01:55:42.238Z,98813.50
2023-02-02T02:00:47.013Z,98829.97
2023-02-02T02:05:54.129Z,98825.06
2023-02-02T02:10:58.395Z,98822.88
2023-02-02T02:16:20.981Z,98830.38
2023-02-02T02:21:58.868Z,98826.28
2023-02-02T02:27:34.843Z,98832.69
2023-02-02T02:32:46.527Z,98822.00
2023-02-02T02:37:55.607Z,98828.63
2023-02-02T02:43:01.800Z,98828.72
2023-02-02T02:48:10.284Z,98842.03
2023-02-02T02:53:19.010Z,98837.88
2023-02-02T02:58:33.363Z,98834.38
2023-02-02T03:03:52.285Z,98847.69
2023-02-02T03:08:59.804Z,98843.34
2023-02-02T03:14:03.098Z,98845.13
2023-02-02T03:19:08.285Z,98832.03
2023-02-02T03:24:11.125Z,98827.75
2023-02-02T03:29:14.716Z,98832.09
2023-02-02T03:34:19.286Z,98826.06
2023-02-02T03:39:22.627Z,98822.56
2023-02-02T03:44:25.699Z,98833.22
2023-02-02T03:49:29.907Z,98832.28
2023-02-02T03:54:32.680Z,98829.56
2023-02-02T03:59:35.415Z,98837.31
2023-02-02T04:04:39.598Z,98829.25
2023-02-02T04:09:42.332Z,98836.25
2023-02-02T04:14:45.082Z,98841.28
2023-02-02T04:19:49.286Z,98846.50
2023-02-02T04:24:52.087Z,98842.03
2023-02-02T04:29:54.846Z,98848.28
2023-02-02T04:34:59.012Z,98861.41
2023-02-02T04:40:01.882Z,98856.22
2023-02-02T04:45:05.207Z,98870.63
2023-02-02T04:50:12.126Z,98873.28
2023-02-02T04:55:15.300Z,98869.03
2023-02-02T05:00:18.568Z,98871.00
2023-02-02T05:05:23.062Z,98867.72
2023-02-02T05:10:26.373Z,98877.63
2023-02-02T05:15:29.165Z,98876.78
2023-02-02T05:20:33.259Z,98887.50
2023-02-02T05:25:35.986Z,98882.41
2023-02-02T05:30:40.555Z,98887.69
2023-02-02T05:35:45.990Z,98900.06
2023-02-02T05:40:49.738Z,98900.06
2023-02-02T05:45:52.691Z,98899.31
2023-02-02T05:51:04.333Z,98907.31
2023-02-02T05:56:07.523Z,98901.19
2023-02-02T06:01:10.639Z,98901.19
2023-02-02T06:06:15.202Z,98907.44
2023-02-02T06:11:19.393Z,98905.63
2023-02-02T06:16:22.258Z,98904.97
2023-02-02T06:21:26.399Z,98910.25
2023-02-02T06:26:30.110Z,98910.25
2023-02-02T06:31:33.970Z,98895.22
2023-02-02T06:36:38.238Z,98889.94
2023-02-02T06:41:41.378Z,98907.50
2023-02-02T06:46:44.281Z,98903.09
2023-02-02T06:51:49.263Z,98916.19
2023-02-02T06:56:52.035Z,98930.19
2023-02-02T07:01:54.837Z,98919.88
2023-02-02T07:06:59.056Z,98922.34
2023-02-02T07:12:01.843Z,98920.53
2023-02-02T07:17:04.724Z,98922.25
2023-02-02T07:22:08.972Z,98935.47
2023-02-02T07:27:11.972Z,98932.00
2023-02-02T07:32:14.770Z,98928.47
2023-02-02T07:37:19.054Z,98925.75
2023-02-02T07:42:21.885Z,98930.75
2023-02-02T07:47:25.580Z,98930.25
2023-02-02T07:52:31.744Z,98927.06
2023-02-02T07:57:34.530Z,98941.03
2023-02-02T08:02:37.383Z,98945.31
2023-02-02T08:07:41.866Z,98948.72
2023-02-02T08:12:44.627Z,98955.41
2023-02-02T08:17:49.962Z,98956.00
2023-02-02T08:22:54.080Z,98962.88
2023-02-02T08:27:58.630Z,98955.75
2023-02-02T08:33:01.399Z,98958.22
2023-02-02T08:38:07.479Z,98951.03
2023-02-02T08:43:10.664Z,98962.81
2023-02-02T08:48:14.412Z,98973.66
2023-02-02T08:53:18.784Z,98972.91
2023-02-02T08:58:21.490Z,98976.31
2023-02-02T09:03:24.296Z,98980.22
2023-02-02T09:08:28.447Z,98982.94
2023-02-02T09:13:32.069Z,98988.97
2023-02-02T09:18:36.144Z,98998.22
2023-02-02T09:23:42.472Z,98993.97
2023-02-02T09:28:47.966Z,99002.09
2023-02-02T09:33:51.317Z,99009.66
2023-02-02T09:38:55.929Z,99032.53
2023-02-02T09:44:11.415Z,99033.03
2023-02-02T09:49:18.334Z,99038.16
2023-02-02T09:54:28.302Z,99038.16
2023-02-02T09:59:36.659Z,99046.84
2023-02-02T10:04:42.531Z,99053.59
2023-02-02T10:09:51.940Z,99048.03
2023-02-02T10:14:59.126Z,99061.72
2023-02-02T10:20:08.115Z,99068.22
2023-02-02T10:25:16.121Z,99068.97
2023-02-02T10:30:20.914Z,99066.69
2023-02-02T10:35:37.175Z,99076.44
2023-02-02T10:40:51.422Z,99080.03
2023-02-02T10:45:55.475Z,99084.38
2023-02-02T10:51:02.432Z,99074.03
2023-02-02T10:56:11.799Z,99092.56
2023-02-02T11:01:17.972Z,99082.75
2023-02-02T11:06:38.594Z,99101.03
2023-02-02T11:11:45.232Z,99096.38
2023-02-02T11:17:02.582Z,99103.38
2023-02-02T11:22:05.880Z,99097.13
2023-02-02T11:27:15.622Z,99095.38
2023-02-02T11:32:28.394Z,99101.69
2023-02-02T11:37:32.203Z,99093.66
2023-02-02T11:42:36.544Z,99088.38
2023-02-02T11:47:39.416Z,99087.50
2023-02-02T11:52:47.175Z,99092.44
2023-02-02T11:58:18.314Z,99095.06
2023-02-02T12:03:30.820Z,99095.19
2023-02-02T12:08:33.647Z,99096.78
2023-02-02T12:13:52.994Z,99102.88
2023-02-02T12:19:15.012Z,99102.75
2023-02-02T12:24:32.395Z,99118.38
2023-02-02T12:30:10.993Z,99111.34
2023-02-02T12:35:29.808Z,99123.28
2023-02-02T12:40:50.450Z,99109.59
2023-02-02T12:46:11.706Z,99112.13
2023-02-02T12:51:31.373Z,99115.34
2023-02-02T12:56:43.088Z,99119.44
2023-02-02T13:01:59.209Z,99115.84
2023-02-02T13:07:37.703Z,99107.53
2023-02-02T13:12:45.660Z,99118.63
2023-02-02T13:17:54.639Z,99119.94
2023-02-02T13:23:00.484Z,99123.84
2023-02-02T13:28:08.758Z,99138.13
2023-02-02T13:33:31.770Z,99138.13
2023-02-02T13:38:35.023Z,99145.13
2023-02-02T13:43:48.113Z,99139.44
2023-02-02T13:49:05.305Z,99149.09
2023-02-02T13:54:39.311Z,99139.84
2023-02-02T13:59:55.351Z,99146.00
2023-02-02T14:05:02.068Z,99148.44
2023-02-02T14:10:06.612Z,99143.72
2023-02-02T14:15:13.354Z,99149.63
2023-02-02T14:20:43.161Z,99147.22
2023-02-02T14:26:06.493Z,99166.06
2023-02-02T14:31:29.208Z,99161.72
2023-02-02T14:36:33.824Z,99155.28
2023-02-02T14:42:15.845Z,99162.88
2023-02-02T14:47:43.469Z,99160.56
2023-02-02T14:52:59.906Z,99171.94
2023-02-02T14:58:05.806Z,99169.50
2023-02-02T15:03:53.999Z,99171.00
2023-02-02T15:09:36.762Z,99182.75
2023-02-02T15:14:45.731Z,99191.84
2023-02-02T15:19:56.155Z,99193.00
2023-02-02T15:25:07.897Z,99191.38
2023-02-02T15:30:16.752Z,99205.56
2023-02-02T15:35:23.401Z,99215.50
2023-02-02T15:40:30.491Z,99208.78
2023-02-02T15:45:37.955Z,99216.69
2023-02-02T15:50:46.391Z,99239.69
2023-02-02T15:55:50.695Z,99252.09
2023-02-02T16:00:59.113Z,99247.91
2023-02-02T16:06:02.161Z,99248.94
2023-02-02T16:11:10.707Z,99248.09
2023-02-02T16:16:26.202Z,99252.63
2023-02-02T16:21:30.609Z,99248.38
2023-02-02T16:26:36.899Z,99264.19
2023-02-02T16:31:40.094Z,99270.63
2023-02-02T16:36:43.016Z,99274.03
2023-02-02T16:41:49.266Z,99269.66
2023-02-02T16:46:53.040Z,99268.84
2023-02-02T16:52:12.755Z,99276.69
2023-02-02T16:57:20.889Z,99285.56
2023-02-02T17:02:29.585Z,99290.81
2023-02-02T17:07:34.351Z,99298.66
2023-02-02T17:12:38.615Z,99308.31
2023-02-02T17:17:41.307Z,99306.59
2023-02-02T17:22:47.779Z,99325.09
2023-02-02T17:27:51.866Z,99325.34
2023-02-02T17:32:54.692Z,99329.63
2023-02-02T17:37:57.653Z,99331.41
2023-02-02T17:43:02.966Z,99328.00
2023-02-02T17:48:06.812Z,99333.22
2023-02-02T17:53:12.640Z,99337.78
2023-02-02T17:58:18.001Z,99350.09
2023-02-02T18:03:23.325Z,99336.91
2023-02-02T18:08:26.174Z,99329.88
2023-02-02T18:13:30.386Z,99338.78
2023-02-02T18:18:33.183Z,99342.22
2023-02-02T18:23:36.348Z,99347.63
2023-02-02T18:28:40.791Z,99350.44
2023-02-02T18:33:44.154Z,99371.66
2023-02-02T18:38:48.769Z,99364.72
2023-02-02T18:43:55.277Z,99362.13
2023-02-02T18:48:58.077Z,99363.00
2023-02-02T18:54:00.834Z,99352.41
2023-02-02T18:59:06.017Z,99343.69
2023-02-02T19:04:09.023Z,99350.00
2023-02-02T19:09:13.710Z,99351.81
2023-02-02T19:14:19.351Z,99343.94
2023-02-02T19:19:27.494Z,99344.88
2023-02-02T19:24:37.629Z,99340.44
2023-02-02T19:29:41.809Z,99346.78
2023-02-02T19:34:45.141Z,99348.59
2023-02-02T19:39:48.114Z,99347.81
2023-02-02T19:44:52.271Z,99346.00
2023-02-02T19:49:55.128Z,99350.47
2023-02-02T19:54:58.030Z,99357.56
2023-02-02T20:00:12.697Z,99366.63
2023-02-02T20:05:20.456Z,99364.91
2023-02-02T20:10:25.928Z,99368.75
2023-02-02T20:15:33.998Z,99375.16
2023-02-02T20:20:41.205Z,99373.47
2023-02-02T20:25:45.624Z,99374.41
2023-02-02T20:30:50.033Z,99382.34
2023-02-02T20:35:52.891Z,99381.50
2023-02-02T20:40:56.482Z,99377.16
2023-02-02T20:46:00.751Z,99390.31
2023-02-02T20:51:03.546Z,99391.06
2023-02-02T20:56:07.075Z,99385.88
2023-02-02T21:01:11.284Z,99397.41
2023-02-02T21:06:14.210Z,99395.59
2023-02-02T21:11:16.997Z,99390.31
2023-02-02T21:16:21.141Z,99392.00
2023-02-02T21:21:24.649Z,99386.72
2023-02-02T21:26:30.304Z,99387.66
2023-02-02T21:31:37.490Z,99379.63
2023-02-02T21:36:43.588Z,99374.41
2023-02-02T21:41:46.517Z,99385.09
2023-02-02T21:46:52.727Z,99375.28
2023-02-02T21:51:59.531Z,99382.34
2023-02-02T21:57:06.172Z,99379.81
2023-02-02T22:02:36.954Z,99378.00
2023-02-02T22:07:41.648Z,99378.16
2023-02-02T22:12:44.453Z,99373.63
2023-02-02T22:17:49.209Z,99386.00
2023-02-02T22:22:53.073Z,99391.25
2023-02-02T22:27:58.569Z,99393.97
2023-02-02T22:33:03.099Z,99408.84
2023-02-02T22:38:06.365Z,99408.84
2023-02-02T22:43:09.253Z,99411.59
2023-02-02T22:48:14.301Z,99415.97
2023-02-02T22:53:17.128Z,99415.34
2023-02-02T22:58:19.892Z,99403.78
2023-02-02T23:03:24.166Z,99394.25
2023-02-02T23:08:26.969Z,99399.72
2023-02-02T23:13:29.831Z,99393.81
2023-02-02T23:18:33.998Z,99399.19
2023-02-02T23:23:36.790Z,99387.06
2023-02-02T23:28:39.570Z,99408.25
2023-02-02T23:33:43.984Z,99409.19
2023-02-02T23:38:46.808Z,99430.38
2023-02-02T23:43:50.382Z,99417.31
2023-02-02T23:48:54.710Z,99382.25
2023-02-02T23:53:57.944Z,99388.69
2023-02-02T23:59:00.734Z,99397.63
